createdAt,value
2016-09-23T00:00:35.764Z,64.12
2016-09-23T00:01:35.722Z,63.83
2016-09-23T00:02:35.683Z,63.64
2016-09-23T00:03:35.630Z,63.64
2016-09-23T00:04:35.584Z,64.02
2016-09-23T00:05:35.574Z,64.02
2016-09-23T00:06:35.480Z,63.73
2016-09-23T00:07:35.432Z,63.83
2016-09-23T00:08:35.392Z,63.45
2016-09-23T00:09:35.342Z,64.02
2016-09-23T00:10:35.298Z,64.4
2016-09-23T00:11:34.930Z,63.73
2016-09-23T00:12:35.202Z,64.02
2016-09-23T00:13:35.155Z,64.12
2016-09-23T00:14:34.801Z,64.31
2016-09-23T00:15:34.944Z,64.02
2016-09-23T00:16:34.994Z,64.22
2016-09-23T00:17:35.156Z,64.12
2016-09-23T00:18:34.904Z,64.37
2016-09-23T00:19:34.869Z,64.47
2016-09-23T00:20:34.812Z,64.66
2016-09-23T00:21:34.769Z,64.47
2016-09-23T00:22:34.724Z,64.56
2016-09-23T00:23:34.675Z,64.47
2016-09-23T00:24:34.317Z,64.56
2016-09-23T00:25:34.590Z,64.66
2016-09-23T00:26:34.271Z,64.56
2016-09-23T00:27:34.473Z,65.14
2016-09-23T00:28:34.676Z,64.76
2016-09-23T00:29:34.588Z,64.76
2016-09-23T00:30:34.335Z,65.52
2016-09-23T00:31:34.284Z,65.62
2016-09-23T00:32:33.945Z,64.85
2016-09-23T00:33:33.885Z,65.05
2016-09-23T00:34:34.133Z,65.14
2016-09-23T00:35:34.094Z,64.56
2016-09-23T00:36:34.044Z,64.76
2016-09-23T00:37:33.999Z,64.66
2016-09-23T00:38:33.950Z,65.05
2016-09-23T00:39:33.791Z,65.14
2016-09-23T00:40:33.897Z,64.76
2016-09-23T00:41:33.812Z,65.05
2016-09-23T00:42:33.789Z,64.76
2016-09-23T00:43:33.698Z,64.95
2016-09-23T00:44:33.348Z,64.95
2016-09-23T00:45:33.613Z,65.23
2016-09-23T00:46:33.555Z,65.05
2016-09-23T00:47:33.519Z,64.95
2016-09-23T00:48:33.468Z,64.85
2016-09-23T00:49:33.421Z,65.05
2016-09-23T00:50:33.373Z,65.23
2016-09-23T00:51:33.324Z,65.42
2016-09-23T00:52:47.851Z,65.05
2016-09-23T00:53:33.227Z,65.42
2016-09-23T00:54:33.177Z,64.95
2016-09-23T00:55:32.817Z,65.14
2016-09-23T00:56:33.085Z,64.09
2016-09-23T00:57:33.047Z,64.56
2016-09-23T00:58:32.674Z,64.47
2016-09-23T00:59:32.934Z,64.56
2016-09-23T01:00:33.094Z,65.14
2016-09-23T01:01:32.838Z,64.95
2016-09-23T01:02:32.994Z,64.95
2016-09-23T01:03:32.739Z,65.05
2016-09-23T01:04:32.700Z,65.52
2016-09-23T01:05:32.338Z,65.05
2016-09-23T01:06:32.601Z,65.14
2016-09-23T01:07:32.553Z,65.52
2016-09-23T01:08:32.510Z,65.23
2016-09-23T01:09:32.153Z,65.52
2016-09-23T01:10:32.602Z,64.76
2016-09-23T01:11:32.360Z,65.14
2016-09-23T01:12:32.325Z,65.05
2016-09-23T01:13:32.255Z,65.14
2016-09-23T01:14:31.908Z,65.14
2016-09-23T01:15:32.185Z,65.33
2016-09-23T01:16:32.148Z,65.14
2016-09-23T01:17:32.314Z,65.23
2016-09-23T01:18:32.017Z,65.23
2016-09-23T01:19:32.017Z,65.88
2016-09-23T01:20:31.920Z,65.68
2016-09-23T01:21:32.087Z,65.33
2016-09-23T01:22:31.837Z,65.58
2016-09-23T01:23:31.545Z,65.23
2016-09-23T01:24:31.736Z,65.81
2016-09-23T01:25:31.679Z,66
2016-09-23T01:26:31.641Z,65.91
2016-09-23T01:27:31.604Z,66.45
2016-09-23T01:28:31.533Z,66.16
2016-09-23T01:29:31.650Z,66.06
2016-09-23T01:30:31.445Z,66.25
2016-09-23T01:31:31.092Z,66.16
2016-09-23T01:32:31.347Z,65.88
2016-09-23T01:33:31.299Z,65.88
2016-09-23T01:34:31.242Z,66.16
2016-09-23T01:35:31.187Z,66.06
2016-09-23T01:36:31.240Z,65.91
2016-09-23T01:37:31.311Z,65.52
2016-09-23T01:38:31.060Z,65.71
2016-09-23T01:39:31.006Z,65.49
2016-09-23T01:40:30.961Z,66.16
2016-09-23T01:41:30.606Z,66.06
2016-09-23T01:42:30.861Z,66.25
2016-09-23T01:43:30.815Z,66.45
2016-09-23T01:44:30.758Z,66.64
2016-09-23T01:45:30.735Z,66.74
2016-09-23T01:46:30.665Z,66.74
2016-09-23T01:47:30.628Z,66.93
2016-09-23T01:48:30.584Z,66.93
2016-09-23T01:49:30.525Z,66.83
2016-09-23T01:50:30.486Z,66.93
2016-09-23T01:51:30.492Z,66.45
2016-09-23T01:52:30.374Z,66.25
2016-09-23T01:53:30.336Z,66.93
2016-09-23T01:54:30.495Z,66.54
2016-09-23T01:55:30.229Z,67.02
2016-09-23T01:56:30.177Z,66.74
2016-09-23T01:57:30.346Z,66.83
2016-09-23T01:58:30.093Z,66.16
2016-09-23T01:59:30.043Z,66.54
2016-09-23T02:00:30.022Z,66.35
2016-09-23T02:01:29.958Z,66.54
2016-09-23T02:02:30.097Z,66.25
2016-09-23T02:03:30.442Z,65.88
2016-09-23T02:04:29.801Z,66.06
2016-09-23T02:05:29.747Z,66.54
2016-09-23T02:06:29.707Z,66.64
2016-09-23T02:07:29.655Z,66.06
2016-09-23T02:08:29.598Z,66.16
2016-09-23T02:09:29.759Z,66.25
2016-09-23T02:10:29.707Z,66.25
2016-09-23T02:11:29.453Z,66.25
2016-09-23T02:12:29.411Z,66.16
2016-09-23T02:13:29.597Z,66.35
2016-09-23T02:14:29.007Z,66.16
2016-09-23T02:15:29.267Z,66.45
2016-09-23T02:16:29.216Z,66.06
2016-09-23T02:17:29.376Z,66.06
2016-09-23T02:18:29.015Z,66.06
2016-09-23T02:19:29.075Z,66.45
2016-09-23T02:20:29.036Z,66.35
2016-09-23T02:21:28.664Z,66.83
2016-09-23T02:22:28.928Z,67.37
2016-09-23T02:23:29.284Z,67.37
2016-09-23T02:24:28.525Z,67.27
2016-09-23T02:25:28.788Z,67.47
2016-09-23T02:26:28.718Z,67.47
2016-09-23T02:27:28.878Z,66.64
2016-09-23T02:28:28.731Z,67.47
2016-09-23T02:29:28.787Z,66.83
2016-09-23T02:30:28.232Z,66.83
2016-09-23T02:31:28.184Z,66.45
2016-09-23T02:32:28.432Z,66.64
2016-09-23T02:33:28.400Z,66.74
2016-09-23T02:34:28.550Z,67.02
2016-09-23T02:35:28.310Z,66.25
2016-09-23T02:36:28.660Z,66.45
2016-09-23T02:37:28.256Z,66.64
2016-09-23T02:38:28.163Z,66.64
2016-09-23T02:39:28.136Z,67.11
2016-09-23T02:40:28.084Z,67.18
2016-09-23T02:41:27.998Z,66.99
2016-09-23T02:42:27.957Z,67.37
2016-09-23T02:43:27.904Z,67.37
2016-09-23T02:44:27.547Z,67.85
2016-09-23T02:45:27.807Z,67.47
2016-09-23T02:46:27.751Z,67.66
2016-09-23T02:47:27.713Z,67.66
2016-09-23T02:48:27.661Z,67.27
2016-09-23T02:49:27.315Z,67.11
2016-09-23T02:50:27.571Z,66.83
2016-09-23T02:51:27.522Z,66.74
2016-09-23T02:52:27.466Z,67.21
2016-09-23T02:53:27.663Z,67.21
2016-09-23T02:54:28.570Z,67.18
2016-09-23T02:55:27.523Z,67.18
2016-09-23T02:56:26.973Z,66.7
2016-09-23T02:57:26.916Z,67.56
2016-09-23T02:58:26.881Z,67.56
2016-09-23T02:59:27.326Z,67.56
2016-09-23T03:00:26.980Z,67.37
2016-09-23T03:01:27.041Z,67.66
2016-09-23T03:02:26.975Z,67.08
2016-09-23T03:03:27.041Z,67.5
2016-09-23T03:04:26.900Z,67.08
2016-09-23T03:05:26.879Z,67.66
2016-09-23T03:06:26.789Z,67.56
2016-09-23T03:07:26.937Z,67.47
2016-09-23T03:08:26.381Z,67.27
2016-09-23T03:09:26.847Z,67.08
2016-09-23T03:10:26.597Z,67.18
2016-09-23T03:11:26.236Z,67.5
2016-09-23T03:12:26.193Z,67.21
2016-09-23T03:13:26.146Z,66.64
2016-09-23T03:14:26.592Z,66.25
2016-09-23T03:15:26.046Z,66.93
2016-09-23T03:16:26.308Z,66.83
2016-09-23T03:17:26.247Z,67.5
2016-09-23T03:18:26.108Z,67.37
2016-09-23T03:19:26.155Z,67.37
2016-09-23T03:20:26.194Z,67.27
2016-09-23T03:21:26.075Z,68.04
2016-09-23T03:22:26.208Z,67.76
2016-09-23T03:23:25.841Z,68.04
2016-09-23T03:24:25.923Z,67.37
2016-09-23T03:25:25.873Z,67.47
2016-09-23T03:26:26.016Z,67.37
2016-09-23T03:27:25.965Z,67.94
2016-09-23T03:28:25.411Z,67.37
2016-09-23T03:29:25.882Z,67.76
2016-09-23T03:30:25.717Z,67.37
2016-09-23T03:31:25.267Z,67.56
2016-09-23T03:32:25.527Z,67.47
2016-09-23T03:33:25.471Z,67.76
2016-09-23T03:34:25.426Z,67.66
2016-09-23T03:35:25.395Z,67.47
2016-09-23T03:36:25.337Z,67.08
2016-09-23T03:37:25.288Z,67.11
2016-09-23T03:38:25.233Z,67.66
2016-09-23T03:39:25.182Z,67.85
2016-09-23T03:40:25.137Z,67.56
2016-09-23T03:41:24.775Z,67.66
2016-09-23T03:42:24.726Z,67.66
2016-09-23T03:43:25.196Z,68.04
2016-09-23T03:44:25.541Z,67.85
2016-09-23T03:45:24.885Z,67.66
2016-09-23T03:46:25.046Z,67.85
2016-09-23T03:47:25.092Z,67.85
2016-09-23T03:48:24.757Z,67.94
2016-09-23T03:49:24.714Z,68.42
2016-09-23T03:50:24.845Z,68.13
2016-09-23T03:51:24.601Z,68.04
2016-09-23T03:52:24.560Z,68.13
2016-09-23T03:53:24.720Z,68.13
2016-09-23T03:54:24.658Z,68.04
2016-09-23T03:55:24.102Z,68.13
2016-09-23T03:56:24.358Z,68.23
2016-09-23T03:57:24.708Z,68.23
2016-09-23T03:58:23.951Z,68.62
2016-09-23T03:59:24.196Z,68.13
2016-09-23T04:00:24.364Z,68.04
2016-09-23T04:01:24.131Z,68.23
2016-09-23T04:02:24.058Z,67.66
2016-09-23T04:03:24.070Z,68.13
2016-09-23T04:04:23.985Z,67.76
2016-09-23T04:05:23.912Z,67.56
2016-09-23T04:06:24.078Z,67.37
2016-09-23T04:07:24.024Z,67.66
2016-09-23T04:08:23.773Z,67.94
2016-09-23T04:09:23.725Z,67.47
2016-09-23T04:10:23.359Z,67.94
2016-09-23T04:11:23.317Z,67.66
2016-09-23T04:12:23.572Z,67.76
2016-09-23T04:13:23.568Z,67.66
2016-09-23T04:14:23.485Z,68.42
2016-09-23T04:15:23.431Z,68.33
2016-09-23T04:16:23.072Z,68.33
2016-09-23T04:17:23.333Z,68.33
2016-09-23T04:18:23.275Z,68.62
2016-09-23T04:19:22.924Z,68.42
2016-09-23T04:20:23.184Z,68.2
2016-09-23T04:21:23.131Z,68.62
2016-09-23T04:22:23.095Z,68.33
2016-09-23T04:23:23.034Z,68.04
2016-09-23T04:24:22.984Z,67.85
2016-09-23T04:25:22.938Z,68.04
2016-09-23T04:26:22.891Z,67.66
2016-09-23T04:27:22.525Z,67.56
2016-09-23T04:28:22.484Z,68.52
2016-09-23T04:29:22.742Z,68.04
2016-09-23T04:30:22.760Z,68.13
2016-09-23T04:31:22.660Z,68.42
2016-09-23T04:32:22.289Z,68.52
2016-09-23T04:33:22.554Z,68.52
2016-09-23T04:34:22.199Z,68.62
2016-09-23T04:35:22.502Z,68.9
2016-09-23T04:36:22.418Z,69.15
2016-09-23T04:37:22.255Z,69.15
2016-09-23T04:38:22.519Z,69.64
2016-09-23T04:39:22.258Z,69.82
2016-09-23T04:40:22.211Z,69.82
2016-09-23T04:41:22.172Z,70.4
2016-09-23T04:42:22.113Z,70.11
2016-09-23T04:43:22.262Z,70.78
2016-09-23T04:44:22.226Z,70.21
2016-09-23T04:45:21.975Z,70.3
2016-09-23T04:46:21.909Z,70.3
2016-09-23T04:47:21.875Z,70.01
2016-09-23T04:48:21.816Z,70.87
2016-09-23T04:49:21.774Z,70.68
2016-09-23T04:50:21.725Z,70.78
2016-09-23T04:51:21.674Z,70.5
2016-09-23T04:52:21.622Z,70.68
2016-09-23T04:53:21.779Z,70.59
2016-09-23T04:54:21.525Z,70.59
2016-09-23T04:55:21.484Z,69.92
2016-09-23T04:56:21.116Z,70.3
2016-09-23T04:57:21.584Z,70.11
2016-09-23T04:58:21.541Z,70.21
2016-09-23T04:59:21.279Z,70.3
2016-09-23T05:00:21.250Z,70.78
2016-09-23T05:01:20.882Z,70.59
2016-09-23T05:02:20.827Z,70.01
2016-09-23T05:03:21.090Z,70.3
2016-09-23T05:04:21.044Z,70.01
2016-09-23T05:05:20.989Z,70.4
2016-09-23T05:06:20.635Z,70.15
2016-09-23T05:07:20.889Z,70.68
2016-09-23T05:08:20.539Z,70.21
2016-09-23T05:09:20.796Z,70.4
2016-09-23T05:10:20.957Z,69.67
2016-09-23T05:11:20.703Z,70.05
2016-09-23T05:12:20.644Z,70.21
2016-09-23T05:13:20.598Z,70.21
2016-09-23T05:14:20.558Z,70.4
2016-09-23T05:15:20.433Z,70.01
2016-09-23T05:16:20.439Z,69.44
2016-09-23T05:17:20.401Z,69.57
2016-09-23T05:18:20.345Z,69.48
2016-09-23T05:19:20.297Z,69
2016-09-23T05:20:20.456Z,69.19
2016-09-23T05:21:19.898Z,68.9
2016-09-23T05:22:19.845Z,68.9
2016-09-23T05:23:20.111Z,69.09
2016-09-23T05:24:20.078Z,69.57
2016-09-23T05:25:20.245Z,69.38
2016-09-23T05:26:20.041Z,69.44
2016-09-23T05:27:19.908Z,69.48
2016-09-23T05:28:19.856Z,69.48
2016-09-23T05:29:19.821Z,68.8
2016-09-23T05:30:19.772Z,69.29
2016-09-23T05:31:19.428Z,69.67
2016-09-23T05:32:19.358Z,69.38
2016-09-23T05:33:19.808Z,69.82
2016-09-23T05:34:19.557Z,70.01
2016-09-23T05:35:19.520Z,70.3
2016-09-23T05:36:19.664Z,70.4
2016-09-23T05:37:19.419Z,70.11
2016-09-23T05:38:19.278Z,70.11
2016-09-23T05:39:19.324Z,70.21
2016-09-23T05:40:19.267Z,70.21
2016-09-23T05:41:19.238Z,70.11
2016-09-23T05:42:19.171Z,70.11
2016-09-23T05:43:19.119Z,70.78
2016-09-23T05:44:19.079Z,70.5
2016-09-23T05:45:19.037Z,70.68
2016-09-23T05:46:18.661Z,70.78
2016-09-23T05:47:18.930Z,70.59
2016-09-23T05:48:18.572Z,70.59
2016-09-23T05:49:18.528Z,70.97
2016-09-23T05:50:18.787Z,70.5
2016-09-23T05:51:18.735Z,70.78
2016-09-23T05:52:18.693Z,70.3
2016-09-23T05:53:18.824Z,70.78
2016-09-23T05:54:18.582Z,71.26
2016-09-23T05:55:18.283Z,71.32
2016-09-23T05:56:18.550Z,71.22
2016-09-23T05:57:18.450Z,70.78
2016-09-23T05:58:18.473Z,70.59
2016-09-23T05:59:18.334Z,70.59
2016-09-23T06:00:18.283Z,70.68
2016-09-23T06:01:18.258Z,70.3
2016-09-23T06:02:18.202Z,70.4
2016-09-23T06:03:18.148Z,70.59
2016-09-23T06:04:17.804Z,70.87
2016-09-23T06:05:17.741Z,70.87
2016-09-23T06:06:17.689Z,71.16
2016-09-23T06:07:17.945Z,71.26
2016-09-23T06:08:17.789Z,70.78
2016-09-23T06:09:17.847Z,70.78
2016-09-23T06:10:17.801Z,70.78
2016-09-23T06:11:17.752Z,70.5
2016-09-23T06:12:17.899Z,70.78
2016-09-23T06:13:17.662Z,71.16
2016-09-23T06:14:17.608Z,71.16
2016-09-23T06:15:17.550Z,71.16
2016-09-23T06:16:17.506Z,70.78
2016-09-23T06:17:17.667Z,70.87
2016-09-23T06:18:17.105Z,70.4
2016-09-23T06:20:17.310Z,70.15
2016-09-23T06:21:17.268Z,70.34
2016-09-23T06:22:16.906Z,69.67
2016-09-23T06:23:16.872Z,69.57
2016-09-23T06:24:17.119Z,69.86
2016-09-23T06:25:17.065Z,69.95
2016-09-23T06:26:17.019Z,70.05
2016-09-23T06:27:16.668Z,70.5
2016-09-23T06:28:16.923Z,70.05
2016-09-23T06:29:16.869Z,70.11
2016-09-23T06:30:16.841Z,70.5
2016-09-23T06:31:16.774Z,70.59
2016-09-23T06:32:16.726Z,70.4
2016-09-23T06:33:16.682Z,70.11
2016-09-23T06:34:16.653Z,69.92
2016-09-23T06:35:16.659Z,70.24
2016-09-23T06:36:16.533Z,69.76
2016-09-23T06:37:16.479Z,69.57
2016-09-23T06:38:16.443Z,69.57
2016-09-23T06:39:16.488Z,69.19
2016-09-23T06:40:16.328Z,69.48
2016-09-23T06:41:15.980Z,69.48
2016-09-23T06:42:15.934Z,69.48
2016-09-23T06:43:16.220Z,69.57
2016-09-23T06:44:15.835Z,69.57
2016-09-23T06:45:15.809Z,69
2016-09-23T06:46:16.053Z,69.57
2016-09-23T06:47:16.012Z,69.67
2016-09-23T06:48:15.939Z,69.38
2016-09-23T06:49:15.934Z,69.57
2016-09-23T06:50:15.537Z,69.48
2016-09-23T06:51:15.808Z,69.48
2016-09-23T06:52:15.454Z,69.38
2016-09-23T06:53:15.717Z,69.57
2016-09-23T06:54:15.645Z,69.29
2016-09-23T06:55:15.605Z,69.57
2016-09-23T06:56:15.239Z,69.76
2016-09-23T06:57:15.712Z,69.19
2016-09-23T06:58:15.658Z,68.71
2016-09-23T06:59:15.411Z,68.71
2016-09-23T07:00:15.350Z,68.33
2016-09-23T07:01:15.320Z,69
2016-09-23T07:02:14.962Z,68.42
2016-09-23T07:03:14.899Z,68.9
2016-09-23T07:04:15.162Z,68.9
2016-09-23T07:05:15.131Z,68.46
2016-09-23T07:06:15.072Z,68.65
2016-09-23T07:07:15.022Z,68.27
2016-09-23T07:08:14.993Z,68.27
2016-09-23T07:09:14.610Z,68.27
2016-09-23T07:10:14.870Z,68.17
2016-09-23T07:11:14.818Z,68.46
2016-09-23T07:12:14.773Z,67.88
2016-09-23T07:13:14.742Z,67.98
2016-09-23T07:14:14.680Z,68.17
2016-09-23T07:15:14.845Z,67.88
2016-09-23T07:16:14.595Z,67.79
2016-09-23T07:17:14.543Z,67.63
2016-09-23T07:18:14.488Z,67.63
2016-09-23T07:19:14.438Z,67.88
2016-09-23T07:20:14.392Z,67.63
2016-09-23T07:21:14.349Z,67.44
2016-09-23T07:22:14.508Z,67.54
2016-09-23T07:23:14.244Z,67.63
2016-09-23T07:24:14.203Z,67.72
2016-09-23T07:25:14.154Z,67.63
2016-09-23T07:26:14.105Z,67.63
2016-09-23T07:27:14.051Z,67.34
2016-09-23T07:28:13.708Z,67.54
2016-09-23T07:29:14.019Z,67.34
2016-09-23T07:30:13.913Z,67.54
2016-09-23T07:31:13.880Z,67.34
2016-09-23T07:32:13.707Z,67.72
2016-09-23T07:33:13.465Z,68.21
2016-09-23T07:34:13.724Z,68.07
2016-09-23T07:35:13.904Z,67.82
2016-09-23T07:36:13.628Z,67.98
2016-09-23T07:37:13.273Z,67.72
2016-09-23T07:38:13.220Z,68.07
2016-09-23T07:39:13.471Z,67.91
2016-09-23T07:40:13.435Z,68.27
2016-09-23T07:41:13.594Z,68.27
2016-09-23T07:42:14.138Z,68.36
2016-09-23T07:43:13.755Z,68.55
2016-09-23T07:44:13.438Z,68.27
2016-09-23T07:45:13.189Z,68.17
2016-09-23T07:46:13.130Z,68.27
2016-09-23T07:47:13.291Z,68.74
2016-09-23T07:48:13.105Z,68.55
2016-09-23T07:49:13.401Z,68.36
2016-09-23T07:50:12.975Z,68.65
2016-09-23T07:51:13.103Z,68.36
2016-09-23T07:52:12.845Z,68.46
2016-09-23T07:53:12.823Z,68.17
2016-09-23T07:54:12.455Z,68.21
2016-09-23T07:55:12.721Z,68.21
2016-09-23T07:56:12.684Z,68.01
2016-09-23T07:57:12.615Z,68.4
2016-09-23T07:58:12.559Z,68.01
2016-09-23T07:59:12.520Z,67.82
2016-09-23T08:00:12.458Z,68.01
2016-09-23T08:01:12.431Z,67.63
2016-09-23T08:02:13.360Z,67.63
2016-09-23T08:03:12.526Z,67.44
2016-09-23T08:04:12.509Z,67.25
2016-09-23T08:05:12.241Z,67.28
2016-09-23T08:06:12.231Z,67.38
2016-09-23T08:07:12.140Z,67.34
2016-09-23T08:08:11.855Z,67.18
2016-09-23T08:09:11.933Z,67.05
2016-09-23T08:10:12.052Z,67.28
2016-09-23T08:11:11.954Z,67.09
2016-09-23T08:12:11.888Z,67.09
2016-09-23T08:13:11.541Z,66.61
2016-09-23T08:14:11.791Z,66.99
2016-09-23T08:15:11.750Z,66.22
2016-09-23T08:16:11.400Z,66.71
2016-09-23T08:17:11.841Z,66.99
2016-09-23T08:18:11.812Z,66.8
2016-09-23T08:19:11.445Z,66.89
2016-09-23T08:20:11.196Z,66.8
2016-09-23T08:21:11.476Z,66.51
2016-09-23T08:22:11.415Z,66.32
2016-09-23T08:23:11.372Z,66.06
2016-09-23T08:24:11.346Z,66.16
2016-09-23T08:25:11.179Z,66.16
2016-09-23T08:26:11.218Z,65.68
2016-09-23T08:27:11.184Z,66
2016-09-23T08:28:11.137Z,66.35
2016-09-23T08:29:11.084Z,65.88
2016-09-23T08:30:11.261Z,65.97
2016-09-23T08:31:11.202Z,66.16
2016-09-23T08:32:10.833Z,66.45
2016-09-23T08:33:10.904Z,66.16
2016-09-23T08:34:11.248Z,66.26
2016-09-23T08:35:11.020Z,66.06
2016-09-23T08:36:11.157Z,66.06
2016-09-23T08:37:10.910Z,66.06
2016-09-23T08:38:10.884Z,66.06
2016-09-23T08:39:10.641Z,66.45
2016-09-23T08:40:10.786Z,66.45
2016-09-23T08:41:10.529Z,66.55
2016-09-23T08:42:10.922Z,66.64
2016-09-23T08:43:10.673Z,66.45
2016-09-23T08:44:11.583Z,66.55
2016-09-23T08:45:10.743Z,66.26
2016-09-23T08:46:10.383Z,66.16
2016-09-23T08:47:09.925Z,66
2016-09-23T08:48:10.615Z,66.39
2016-09-23T08:49:10.353Z,66.29
2016-09-23T08:50:09.973Z,65.81
2016-09-23T08:51:10.029Z,65.72
2016-09-23T08:52:10.003Z,65.62
2016-09-23T08:53:10.146Z,65.62
2016-09-23T08:54:09.584Z,65.72
2016-09-23T08:55:09.543Z,65.56
2016-09-23T08:56:09.807Z,65.75
2016-09-23T08:57:09.778Z,65.46
2016-09-23T08:58:09.400Z,65.75
2016-09-23T08:59:09.663Z,65.91
2016-09-23T09:00:09.818Z,66.29
2016-09-23T09:01:09.583Z,66.39
2016-09-23T09:02:09.529Z,66.49
2016-09-23T09:03:09.168Z,66.19
2016-09-23T09:04:09.129Z,66.13
2016-09-23T09:05:09.074Z,65.65
2016-09-23T09:06:09.615Z,65.36
2016-09-23T09:07:09.300Z,64.98
2016-09-23T09:08:08.939Z,65.2
2016-09-23T09:09:08.886Z,64.53
2016-09-23T09:10:09.203Z,64.72
2016-09-23T09:11:23.673Z,64.05
2016-09-23T09:12:08.751Z,64.72
2016-09-23T09:13:08.705Z,64.72
2016-09-23T09:14:08.972Z,64.53
2016-09-23T09:15:09.123Z,64.53
2016-09-23T09:16:08.872Z,65.2
2016-09-23T09:17:08.817Z,64.92
2016-09-23T09:18:08.977Z,64.92
2016-09-23T09:19:08.710Z,65.4
2016-09-23T09:20:08.708Z,64.34
2016-09-23T09:21:08.635Z,65.2
2016-09-23T09:22:08.487Z,65.11
2016-09-23T09:23:08.230Z,64.63
2016-09-23T09:24:08.502Z,64.76
2016-09-23T09:25:08.655Z,64.95
2016-09-23T09:26:08.092Z,64.95
2016-09-23T09:27:08.379Z,65.05
2016-09-23T09:28:08.320Z,65.05
2016-09-23T09:29:08.269Z,65.05
2016-09-23T09:30:08.239Z,65.33
2016-09-23T09:31:08.199Z,65.05
2016-09-23T09:32:08.137Z,65.14
2016-09-23T09:33:08.342Z,64.85
2016-09-23T09:34:08.187Z,64.56
2016-09-23T09:35:08.005Z,64.79
2016-09-23T09:36:07.639Z,64.76
2016-09-23T09:37:07.942Z,64.02
2016-09-23T09:38:07.847Z,64.79
2016-09-23T09:39:07.801Z,64.89
2016-09-23T09:40:07.766Z,64.5
2016-09-23T09:41:07.689Z,64.6
2016-09-23T09:42:07.667Z,64.6
2016-09-23T09:43:07.612Z,64.69
2016-09-23T09:44:07.587Z,64.79
2016-09-23T09:45:07.210Z,64.22
2016-09-23T09:46:07.479Z,64.69
2016-09-23T09:47:07.437Z,64.79
2016-09-23T09:48:07.394Z,64.69
2016-09-23T09:49:07.035Z,64.6
2016-09-23T09:50:06.986Z,64.6
2016-09-23T09:51:06.946Z,64.69
2016-09-23T09:52:07.417Z,64.69
2016-09-23T09:53:07.165Z,64.31
2016-09-23T09:54:07.102Z,64.79
2016-09-23T09:55:07.357Z,64.6
2016-09-23T09:56:07.224Z,65.17
2016-09-23T09:57:06.985Z,65.27
2016-09-23T09:58:06.918Z,65.08
2016-09-23T09:59:06.779Z,65.17
2016-09-23T10:00:07.063Z,64.69
2016-09-23T10:01:06.477Z,64.79
2016-09-23T10:02:06.431Z,64.79
2016-09-23T10:03:06.715Z,64.98
2016-09-23T10:04:06.345Z,65.17
2016-09-23T10:05:06.307Z,65.56
2016-09-23T10:06:06.570Z,65.46
2016-09-23T10:07:06.537Z,64.98
2016-09-23T10:08:06.479Z,65.17
2016-09-23T10:09:06.442Z,64.53
2016-09-23T10:10:06.388Z,65.01
2016-09-23T10:11:06.368Z,64.53
2016-09-23T10:12:06.497Z,64.53
2016-09-23T10:13:06.323Z,64.34
2016-09-23T10:14:06.214Z,64.34
2016-09-23T10:15:06.362Z,64.53
2016-09-23T10:16:06.111Z,63.95
2016-09-23T10:17:06.259Z,64.05
2016-09-23T10:18:06.020Z,63.95
2016-09-23T10:19:06.159Z,64.47
2016-09-23T10:20:05.930Z,64.05
2016-09-23T10:21:05.871Z,64.18
2016-09-23T10:22:05.829Z,64.08
2016-09-23T10:23:05.802Z,64.28
2016-09-23T10:24:05.749Z,64.08
2016-09-23T10:25:05.708Z,64.28
2016-09-23T10:26:05.657Z,64.08
2016-09-23T10:27:05.295Z,63.99
2016-09-23T10:28:05.558Z,63.7
2016-09-23T10:29:05.518Z,63.99
2016-09-23T10:30:05.479Z,63.6
2016-09-23T10:31:05.114Z,63.89
2016-09-23T10:32:05.372Z,63.7
2016-09-23T10:33:05.732Z,63.41
2016-09-23T10:34:04.982Z,63.06
2016-09-23T10:35:05.249Z,63.41
2016-09-23T10:36:05.092Z,62.93
2016-09-23T10:37:05.153Z,62.54
2016-09-23T10:38:05.100Z,62.06
2016-09-23T10:39:05.082Z,62.19
2016-09-23T10:40:04.716Z,62.48
2016-09-23T10:41:04.972Z,62.48
2016-09-23T10:42:04.938Z,62.48
2016-09-23T10:43:04.872Z,62.09
2016-09-23T10:44:04.830Z,62.19
2016-09-23T10:45:04.477Z,62.19
2016-09-23T10:46:04.446Z,62.38
2016-09-23T10:47:04.734Z,62.09
2016-09-23T10:48:04.675Z,62.09
2016-09-23T10:49:04.808Z,62.09
2016-09-23T10:50:04.659Z,62.19
2016-09-23T10:51:04.240Z,62.38
2016-09-23T10:52:04.490Z,62.48
2016-09-23T10:53:04.383Z,62.48
2016-09-23T10:54:04.383Z,62.48
2016-09-23T10:55:04.335Z,62.19
2016-09-23T10:56:04.294Z,61.8
2016-09-23T10:57:04.254Z,61.61
2016-09-23T10:58:03.899Z,62
2016-09-23T10:59:04.170Z,62.09
2016-09-23T11:00:04.108Z,62
2016-09-23T11:01:04.074Z,61.32
2016-09-23T11:02:04.037Z,61.42
2016-09-23T11:03:04.060Z,61.04
2016-09-23T11:04:03.937Z,61.13
2016-09-23T11:05:03.921Z,60.84
2016-09-23T11:06:03.851Z,60.65
2016-09-23T11:07:03.797Z,60.65
2016-09-23T11:08:03.871Z,60.94
2016-09-23T11:09:03.739Z,59.88
2016-09-23T11:10:03.372Z,60.17
2016-09-23T11:11:03.322Z,60.1
2016-09-23T11:12:03.303Z,59.91
2016-09-23T11:13:03.223Z,59.14
2016-09-23T11:14:03.481Z,58.95
2016-09-23T11:15:03.442Z,58.85
2016-09-23T11:16:03.402Z,58.75
2016-09-23T11:17:03.343Z,58.56
2016-09-23T11:18:02.997Z,58.75
2016-09-23T11:19:03.256Z,58.75
2016-09-23T11:20:03.104Z,58.37
2016-09-23T11:21:03.155Z,58.27
2016-09-23T11:22:03.123Z,58.37
2016-09-23T11:23:02.776Z,58.47
2016-09-23T11:24:03.017Z,57.69
2016-09-23T11:25:02.977Z,57.5
2016-09-23T11:26:02.633Z,57.5
2016-09-23T11:27:02.899Z,57.02
2016-09-23T11:28:02.844Z,56.73
2016-09-23T11:29:02.817Z,56.73
2016-09-23T11:30:02.758Z,56.25
2016-09-23T11:31:02.702Z,55.48
2016-09-23T11:32:03.058Z,55.19
2016-09-23T11:33:02.650Z,55.48
2016-09-23T11:34:02.574Z,54.52
2016-09-23T11:35:02.585Z,54.52
2016-09-23T11:36:02.684Z,54.52
2016-09-23T11:37:02.448Z,54.22
2016-09-23T11:38:02.387Z,53.87
2016-09-23T11:39:02.036Z,53.77
2016-09-23T11:40:02.322Z,53.87
2016-09-23T11:41:02.496Z,53.94
2016-09-23T11:42:02.213Z,54.03
2016-09-23T11:43:02.171Z,53.45
2016-09-23T11:44:01.926Z,52.69
2016-09-23T11:45:02.120Z,52.4
2016-09-23T11:46:02.363Z,52.4
2016-09-23T11:47:02.070Z,52.2
2016-09-23T11:48:02.032Z,51.92
2016-09-23T11:49:01.895Z,51.72
2016-09-23T11:50:01.885Z,51.07
2016-09-23T11:51:01.507Z,51.17
2016-09-23T11:52:01.767Z,50.69
2016-09-23T11:53:01.778Z,50.4
2016-09-23T11:54:01.359Z,50.4
2016-09-23T11:55:01.693Z,50.4
2016-09-23T11:56:01.604Z,50.01
2016-09-23T11:57:01.552Z,49.91
2016-09-23T11:58:01.492Z,50.59
2016-09-23T11:59:01.477Z,50.59
2016-09-23T12:00:01.430Z,49.91
2016-09-23T12:01:01.366Z,49.82
2016-09-23T12:02:01.302Z,49.84
2016-09-23T12:03:01.279Z,49.55
2016-09-23T12:04:01.219Z,49.17
2016-09-23T12:05:01.221Z,48.9
2016-09-23T12:06:00.831Z,49.1
2016-09-23T12:07:01.106Z,49.1
2016-09-23T12:08:01.053Z,49
2016-09-23T12:09:01.215Z,49.17
2016-09-23T12:10:01.164Z,49
2016-09-23T12:11:01.317Z,49
2016-09-23T12:12:00.563Z,49
2016-09-23T12:13:00.524Z,49.1
2016-09-23T12:14:00.779Z,48.81
2016-09-23T12:15:00.750Z,48.9
2016-09-23T12:16:00.716Z,48.52
2016-09-23T12:17:00.850Z,48.9
2016-09-23T12:18:00.607Z,48.61
2016-09-23T12:19:00.757Z,48.52
2016-09-23T12:20:00.514Z,48.71
2016-09-23T12:21:00.478Z,48.71
2016-09-23T12:22:00.430Z,48.61
2016-09-23T12:23:00.587Z,48.42
2016-09-23T12:24:01.013Z,47.96
2016-09-23T12:25:01.142Z,47.48
2016-09-23T12:25:59.969Z,47.48
2016-09-23T12:27:00.249Z,46.81
2016-09-23T12:27:59.863Z,46.92
2016-09-23T12:29:00.323Z,46.64
2016-09-23T12:30:00.092Z,46.83
2016-09-23T12:31:00.917Z,46.54
2016-09-23T12:32:00.020Z,45.86
2016-09-23T12:32:59.650Z,46.06
2016-09-23T12:33:59.909Z,46.15
2016-09-23T12:34:59.889Z,46.06
2016-09-23T12:35:59.827Z,46.25
2016-09-23T12:36:59.768Z,45.76
2016-09-23T12:37:59.784Z,46.54
2016-09-23T12:38:59.686Z,47.22
2016-09-23T12:39:59.637Z,46.92
2016-09-23T12:40:59.605Z,47.6
2016-09-23T12:41:59.248Z,48.18
2016-09-23T12:42:59.502Z,48.25
2016-09-23T12:43:59.525Z,48.83
2016-09-23T12:44:59.119Z,48.93
2016-09-23T12:45:59.366Z,48.83
2016-09-23T12:46:59.328Z,49.02
2016-09-23T12:47:59.287Z,49.41
2016-09-23T12:48:59.259Z,49.41
2016-09-23T12:49:59.201Z,49.58
2016-09-23T12:50:59.357Z,49.96
2016-09-23T12:51:59.324Z,49.77
2016-09-23T12:52:59.078Z,49.68
2016-09-23T12:53:59.021Z,49.68
2016-09-23T12:54:58.986Z,50.26
2016-09-23T12:55:58.928Z,50.06
2016-09-23T12:56:58.893Z,50.62